Pembroke, Maine
Current Conditions -  °F | °C
As of 5:00 AM on Wednesday 22 Oct 2014 (Local Time) from CYSJ Reporting Station
Light Rain Light Rain  
Wind Chill: 44°   Ceiling: 11000
Heat Index: 48°   Visibility: 15mi
Dew Point: 39°   Wind: 9mph
Humidity: 71%   Direction: 50°NE
Pressure: 30.24"   Gusts: NA
Location:  44.95°N, 67.16°W
Report Text: CYSJ 220900Z 05008KT 15SM -RA SCT087 OVC110 09/04 A3024 RMK AC3AS5 SLP242
Loading
Personal Weather Stations






























Interactive Weather Map
Tropical Storm Tracking
New forecast layout! Learn more

10-Day Weather Forecast

Advertisements
Track Severe Weather on mobile